Time;durP1;ratioP1;P1;durP2;ratioP2;P2;SDS_P1;SDS_P2;PMS_P1;PMS_P2;Temp;Humidity;BMP_temperature;BMP_pressure;BME280_temperature;BME280_humidity;BME280_pressure;Samples;Min_cycle;Max_cycle;Signal;HPM_P1;HPM_P2
2022/12/14 00:01:23;;;;;;;15.07;7.43;;;;;;;-2.69;100.00;100194.03;4973381;28;20050;-78
2022/12/14 00:03:49;;;;;;;26.23;8.77;;;;;;;-2.51;100.00;100214.84;4970605;28;20065;-78
2022/12/14 00:06:24;;;;;;;25.77;9.52;;;;;;;-2.58;100.00;100208.81;4988095;28;20077;-78
2022/12/14 00:08:51;;;;;;;18.80;7.63;;;;;;;-2.52;100.00;100217.59;4973172;28;20030;-78
2022/12/14 00:11:24;;;;;;;19.25;7.90;;;;;;;-2.53;100.00;100221.19;4984608;28;20531;-77
2022/12/14 00:13:54;;;;;;;15.50;7.80;;;;;;;-2.46;100.00;100204.84;4985752;28;20054;-78
2022/12/14 00:16:20;;;;;;;15.60;6.88;;;;;;;-2.52;100.00;100197.00;4985476;28;20148;-78
2022/12/14 00:18:50;;;;;;;18.88;7.82;;;;;;;-2.54;100.00;100193.53;4976091;28;20035;-78
2022/12/14 00:21:16;;;;;;;17.77;7.40;;;;;;;-2.53;100.00;100195.25;4970156;28;20034;-79
2022/12/14 00:23:43;;;;;;;15.63;8.05;;;;;;;-2.57;100.00;100182.91;4973264;28;20038;-78
2022/12/14 00:26:14;;;;;;;15.75;7.85;;;;;;;-2.58;100.00;100186.50;4983150;28;20030;-79
2022/12/14 00:28:40;;;;;;;17.38;7.70;;;;;;;-2.65;100.00;100182.31;4970033;28;20445;-79
2022/12/14 00:31:09;;;;;;;17.52;7.82;;;;;;;-2.65;100.00;100169.78;4983702;28;20413;-78
2022/12/14 00:33:35;;;;;;;16.75;7.63;;;;;;;-2.67;100.00;100163.59;4984382;28;20035;-78
2022/12/14 00:36:02;;;;;;;17.55;7.03;;;;;;;-2.62;100.00;100172.34;4954133;28;20406;-78
2022/12/14 00:38:27;;;;;;;18.75;7.38;;;;;;;-2.67;100.00;100176.09;4989418;28;20027;-77
2022/12/14 00:40:54;;;;;;;18.50;7.13;;;;;;;-2.70;100.00;100182.47;4982914;28;20502;-78
2022/12/14 00:43:20;;;;;;;18.88;7.03;;;;;;;-2.74;100.00;100180.81;4985923;28;20118;-77
2022/12/14 00:45:45;;;;;;;17.77;6.75;;;;;;;-2.74;100.00;100178.13;4984255;28;20485;-78
2022/12/14 00:48:12;;;;;;;16.73;7.10;;;;;;;-2.71;100.00;100182.53;4983649;28;20125;-78
2022/12/14 00:50:38;;;;;;;17.05;7.47;;;;;;;-2.75;100.00;100167.47;4987017;28;20034;-78
2022/12/14 00:53:04;;;;;;;14.10;7.20;;;;;;;-2.80;100.00;100157.81;4967113;28;20038;-79
2022/12/14 00:55:30;;;;;;;19.75;7.75;;;;;;;-2.79;100.00;100172.06;4982852;28;20034;-77
2022/12/14 00:57:56;;;;;;;17.27;7.53;;;;;;;-2.80;100.00;100160.47;4983816;28;20042;-78
2022/12/14 01:00:21;;;;;;;17.52;7.35;;;;;;;-2.87;100.00;100142.91;4983545;28;20045;-78
2022/12/14 01:02:47;;;;;;;13.48;7.20;;;;;;;-2.86;100.00;100139.25;4981469;28;20042;-79
2022/12/14 01:05:12;;;;;;;20.00;7.20;;;;;;;-2.87;100.00;100139.31;4985411;28;20046;-78
2022/12/14 01:07:38;;;;;;;18.38;8.05;;;;;;;-2.91;100.00;100138.56;4954638;28;20420;-78
2022/12/14 01:10:03;;;;;;;19.52;7.63;;;;;;;-2.95;100.00;100131.56;4983385;28;20074;-77
2022/12/14 01:12:29;;;;;;;19.98;7.60;;;;;;;-2.98;100.00;100126.31;4999350;28;20532;-80
2022/12/14 01:14:54;;;;;;;21.40;7.60;;;;;;;-2.98;100.00;100139.72;4984043;28;20496;-77
2022/12/14 01:17:20;;;;;;;16.85;7.07;;;;;;;-3.03;100.00;100139.88;4965346;28;20026;-78
2022/12/14 01:19:46;;;;;;;15.80;7.28;;;;;;;-3.17;100.00;100140.31;4967962;28;20048;-76
2022/12/14 01:22:12;;;;;;;17.55;7.47;;;;;;;-3.22;100.00;100141.44;4982116;28;20137;-78
2022/12/14 01:24:38;;;;;;;21.27;7.72;;;;;;;-3.29;100.00;100135.41;4982001;28;20533;-78
2022/12/14 01:27:04;;;;;;;15.65;6.82;;;;;;;-3.32;100.00;100138.19;4968708;28;20052;-77
2022/12/14 01:29:29;;;;;;;16.67;7.82;;;;;;;-3.30;100.00;100128.28;4986257;28;20053;-78
2022/12/14 01:31:56;;;;;;;21.40;7.90;;;;;;;-3.31;100.00;100121.22;4972991;28;20472;-78
2022/12/14 01:34:21;;;;;;;22.88;7.68;;;;;;;-3.28;100.00;100115.75;4985454;28;20053;-78
2022/12/14 01:36:47;;;;;;;16.25;7.70;;;;;;;-3.25;100.00;100114.75;4986800;28;20034;-78
2022/12/14 01:39:15;;;;;;;18.90;7.60;;;;;;;-3.17;100.00;100124.28;4982771;28;20042;-79
2022/12/14 01:41:48;;;;;;;19.15;8.77;;;;;;;-3.18;100.00;100121.63;4984852;28;20046;-79
2022/12/14 01:44:13;;;;;;;;;;;;;;;-3.21;100.00;100122.63;4982579;28;20038;-78
2022/12/14 01:46:44;;;;;;;16.63;7.38;;;;;;;-3.23;100.00;100116.47;4985524;28;20412;-79
2022/12/14 01:49:18;;;;;;;17.40;8.35;;;;;;;-3.26;100.00;100103.19;4982898;28;20046;-78
2022/12/14 01:51:52;;;;;;;18.08;7.93;;;;;;;-3.20;100.00;100112.78;4967559;28;20464;-77
2022/12/14 01:54:19;;;;;;;15.35;6.85;;;;;;;-3.24;100.00;100114.72;4984316;28;20121;-79
2022/12/14 01:56:47;;;;;;;16.02;6.85;;;;;;;-3.23;100.00;100108.44;4976191;28;20105;-78
2022/12/14 01:59:20;;;;;;;21.73;8.85;;;;;;;-3.28;100.00;100089.00;4987028;28;20138;-78
2022/12/14 02:01:47;;;;;;;16.73;8.05;;;;;;;-3.21;100.00;100103.91;4981388;28;20880;-77
2022/12/14 02:04:14;;;;;;;19.05;8.00;;;;;;;-3.18;100.00;100100.22;5003208;28;20038;-78
2022/12/14 02:06:42;;;;;;;18.48;7.43;;;;;;;-3.17;100.00;100105.53;4982278;28;20042;-78
2022/12/14 02:09:11;;;;;;;13.38;6.93;;;;;;;-3.13;100.00;100087.59;4981481;28;20493;-80
2022/12/14 02:11:48;;;;;;;19.55;7.28;;;;;;;-3.14;100.00;100091.19;4983820;28;20769;-79
2022/12/14 02:14:13;;;;;;;16.98;6.90;;;;;;;-3.12;100.00;100093.81;4984100;28;20092;-78
2022/12/14 02:16:41;;;;;;;21.67;6.90;;;;;;;-3.10;100.00;100094.63;4985410;28;20038;-78
2022/12/14 02:19:07;;;;;;;17.80;7.18;;;;;;;-3.18;100.00;100086.84;4949514;28;20060;-79
2022/12/14 02:21:42;;;;;;;15.82;6.47;;;;;;;-3.14;100.00;100085.81;4982751;28;20042;-79
2022/12/14 02:24:31;;;;;;;20.20;7.57;;;;;;;-3.10;100.00;100091.94;4965682;28;20059;-78
2022/12/14 02:27:15;;;;;;;16.52;7.10;;;;;;;-3.08;100.00;100090.06;4985364;28;20085;-78
2022/12/14 02:30:14;;;;;;;19.98;7.60;;;;;;;-3.12;100.00;100083.09;4984032;28;20054;-78
2022/12/14 02:32:46;;;;;;;16.52;7.65;;;;;;;-3.20;100.00;100088.72;4982460;28;20027;-78
2022/12/14 02:35:30;;;;;;;16.20;6.70;;;;;;;-3.19;100.00;100085.97;4982675;28;20041;-78
2022/12/14 02:38:10;;;;;;;20.33;7.55;;;;;;;-3.23;100.00;100078.09;4966677;28;20093;-78
2022/12/14 02:40:41;;;;;;;19.95;7.15;;;;;;;-3.25;100.00;100077.28;4966540;28;20042;-77
2022/12/14 02:43:09;;;;;;;20.98;6.03;;;;;;;-3.27;100.00;100072.00;4986529;28;20030;-78
2022/12/14 02:45:38;;;;;;;15.23;6.68;;;;;;;-3.18;100.00;100069.00;5005208;28;20209;-79
2022/12/14 02:48:12;;;;;;;27.08;7.00;;;;;;;-3.18;100.00;100073.44;4988716;28;20069;-79
2022/12/14 02:50:48;;;;;;;15.77;6.90;;;;;;;-3.16;100.00;100083.19;4986126;28;20113;-78
2022/12/14 02:53:30;;;;;;;15.80;7.63;;;;;;;-3.20;100.00;100068.19;4987130;28;20027;-79
2022/12/14 02:56:05;;;;;;;24.27;8.05;;;;;;;-3.21;100.00;100058.41;4969015;28;20038;-79
2022/12/14 02:58:39;;;;;;;15.07;6.97;;;;;;;-3.23;100.00;100065.63;4991490;28;20113;-79
2022/12/14 03:01:10;;;;;;;21.17;7.68;;;;;;;-3.27;100.00;100050.56;4985668;28;20027;-79
2022/12/14 03:03:35;;;;;;;18.73;7.32;;;;;;;-3.31;100.00;100043.59;4985119;28;20033;-79
2022/12/14 03:06:13;;;;;;;16.80;6.43;;;;;;;-3.22;100.00;100058.44;4987905;28;20046;-78
2022/12/14 03:08:43;;;;;;;15.73;7.30;;;;;;;-3.23;100.00;100062.03;4986049;28;20089;-78
2022/12/14 03:11:12;;;;;;;16.17;7.10;;;;;;;-3.23;100.00;100054.91;4985621;28;20553;-78
2022/12/14 03:14:03;;;;;;;14.93;6.95;;;;;;;-3.23;100.00;100060.25;4974169;28;20033;-78
2022/12/14 03:16:42;;;;;;;18.58;7.38;;;;;;;-3.17;100.00;100060.00;4986744;28;20061;-78
2022/12/14 03:19:10;;;;;;;17.85;6.65;;;;;;;-3.12;100.00;100064.34;4986294;28;20121;-78
2022/12/14 03:21:41;;;;;;;15.45;6.88;;;;;;;-3.05;100.00;100058.72;4971296;28;20501;-78
2022/12/14 03:24:11;;;;;;;17.17;6.60;;;;;;;-3.04;100.00;100054.25;5004374;28;20433;-79
2022/12/14 03:26:52;;;;;;;14.32;6.28;;;;;;;-2.96;100.00;100057.50;4985745;28;20408;-79
2022/12/14 03:29:22;;;;;;;15.93;6.80;;;;;;;-2.98;100.00;100052.22;5001861;28;20102;-78
2022/12/14 03:32:02;;;;;;;15.00;6.03;;;;;;;-2.94;100.00;100044.94;4987365;28;20070;-78
2022/12/14 03:34:34;;;;;;;16.80;6.72;;;;;;;-2.89;100.00;100047.44;4985625;28;20022;-78
2022/12/14 03:37:14;;;;;;;14.15;6.45;;;;;;;-2.89;100.00;100047.44;4967609;28;20151;-77
2022/12/14 03:39:42;;;;;;;10.95;6.25;;;;;;;-2.95;100.00;100037.84;4981967;28;20031;-79
2022/12/14 03:42:16;;;;;;;15.77;6.63;;;;;;;-2.93;100.00;100035.97;4984367;28;20034;-78
2022/12/14 03:44:48;;;;;;;17.50;6.15;;;;;;;-2.90;100.00;100033.19;4990674;28;20035;-78
2022/12/14 03:47:29;;;;;;;13.45;6.75;;;;;;;-2.92;100.00;100015.41;4985049;28;20117;-79
2022/12/14 03:50:11;;;;;;;16.77;6.47;;;;;;;-2.84;100.00;100024.91;4987865;28;20042;-78
2022/12/14 03:53:06;;;;;;;13.38;5.90;;;;;;;-2.82;100.00;100019.50;4986544;28;22038;-79
2022/12/14 03:55:50;;;;;;;23.83;6.90;;;;;;;-2.79;100.00;100019.38;4987040;28;20528;-78
2022/12/14 03:58:39;;;;;;;16.77;6.75;;;;;;;-2.78;100.00;100013.97;4985527;28;20508;-79
2022/12/14 04:01:34;;;;;;;12.95;5.90;;;;;;;-2.77;100.00;100013.06;4985608;28;20026;-79
2022/12/14 04:04:14;;;;;;;17.83;6.30;;;;;;;-2.75;100.00;100009.41;4985911;28;20038;-79
2022/12/14 04:06:48;;;;;;;17.00;6.13;;;;;;;-2.81;100.00;99997.16;4982322;28;20042;-79
2022/12/14 04:09:22;;;;;;;15.65;5.70;;;;;;;-2.85;100.00;99988.34;4967520;28;20030;-78
2022/12/14 04:20:49;;;;;;;13.15;6.15;;;;;;;-2.71;100.00;99984.28;5002684;28;20042;-79
2022/12/14 04:26:03;;;;;;;13.93;6.22;;;;;;;-2.67;100.00;99981.41;4985991;28;20049;-78
2022/12/14 04:26:13;;;;;;;10.63;5.85;;;;;;;-2.66;100.00;99980.47;4987795;28;20045;-79
2022/12/14 04:32:21;;;;;;;11.93;6.25;;;;;;;-2.65;100.00;99965.28;4982630;28;20417;-78
2022/12/14 04:34:52;;;;;;;14.73;6.07;;;;;;;-2.67;100.00;99965.34;4977928;28;20057;-78
2022/12/14 04:37:21;;;;;;;16.40;6.57;;;;;;;-2.68;100.00;99965.41;4985603;28;20034;-79
2022/12/14 04:39:58;;;;;;;13.65;5.97;;;;;;;-2.70;100.00;99961.91;4984856;28;20114;-80
2022/12/14 04:42:32;;;;;;;14.13;5.72;;;;;;;-2.67;100.00;99969.81;4986353;28;20527;-78
2022/12/14 04:45:05;;;;;;;9.45;5.53;;;;;;;-2.72;100.00;99956.63;4989877;28;20128;-79
2022/12/14 04:47:37;;;;;;;15.02;6.20;;;;;;;-2.69;100.00;99958.28;4970653;28;20532;-78
2022/12/14 04:50:12;;;;;;;12.23;5.63;;;;;;;-2.74;100.00;99946.88;4985017;28;20034;-78
2022/12/14 04:52:45;;;;;;;13.25;5.43;;;;;;;-2.71;100.00;99947.63;4985929;28;20402;-78
2022/12/14 04:55:24;;;;;;;12.52;5.35;;;;;;;-2.70;100.00;99943.16;4985579;28;20045;-78
2022/12/14 04:57:49;;;;;;;13.07;6.10;;;;;;;-2.69;100.00;99943.09;5000370;28;20118;-78
2022/12/14 05:00:15;;;;;;;13.95;6.88;;;;;;;-2.69;100.00;99947.56;4981159;28;20172;-79
2022/12/14 05:03:15;;;;;;;13.55;6.20;;;;;;;-2.75;100.00;99943.34;4985827;28;20073;-78
2022/12/14 05:06:04;;;;;;;12.88;5.15;;;;;;;-2.80;100.00;99935.47;4966928;28;20026;-78
2022/12/14 05:09:04;;;;;;;12.27;5.85;;;;;;;-2.83;100.00;99929.38;4994897;28;20035;-78
2022/12/14 05:11:40;;;;;;;13.13;6.32;;;;;;;-2.81;100.00;99933.72;4995898;28;20034;-78
2022/12/14 05:14:10;;;;;;;13.98;6.30;;;;;;;-2.80;100.00;99929.25;4992883;28;20035;-77
2022/12/14 05:16:36;;;;;;;12.85;6.30;;;;;;;-2.86;100.00;99916.97;4996995;28;20045;-78
2022/12/14 05:19:07;;;;;;;15.27;7.07;;;;;;;-2.81;100.00;99927.50;4975715;28;20046;-79
2022/12/14 05:21:47;;;;;;;19.55;6.90;;;;;;;-2.80;100.00;99934.63;4988299;28;20038;-79
2022/12/14 05:24:15;;;;;;;13.65;6.53;;;;;;;-2.80;100.00;99930.13;4963383;28;20062;-79
2022/12/14 05:26:42;;;;;;;16.20;6.90;;;;;;;-2.87;100.00;99928.63;4990100;28;20483;-78
2022/12/14 05:29:08;;;;;;;17.98;7.70;;;;;;;-2.87;100.00;99920.59;4989124;28;20058;-79
2022/12/14 05:31:34;;;;;;;16.63;7.07;;;;;;;-2.85;100.00;99912.50;4993520;28;20446;-78
2022/12/14 05:33:59;;;;;;;16.88;7.68;;;;;;;-2.88;100.00;99913.47;4988597;28;20485;-78
2022/12/14 05:36:25;;;;;;;24.52;8.32;;;;;;;-2.90;100.00;99901.97;4977820;28;20026;-78
2022/12/14 05:38:51;;;;;;;28.40;7.90;;;;;;;-2.93;100.00;99902.09;4967065;28;20070;-79
2022/12/14 05:41:16;;;;;;;19.23;7.45;;;;;;;-2.95;100.00;99912.00;4986868;28;20054;-78
2022/12/14 05:43:42;;;;;;;18.13;7.22;;;;;;;-2.94;100.00;99916.41;4976983;28;20413;-79
2022/12/14 05:46:10;;;;;;;20.52;7.70;;;;;;;-2.97;100.00;99908.47;4990955;28;20041;-78
2022/12/14 05:48:37;;;;;;;17.15;8.05;;;;;;;-3.03;100.00;99904.25;4988762;28;20036;-79
2022/12/14 05:51:08;;;;;;;21.75;7.88;;;;;;;-2.98;100.00;99899.56;4969626;28;20046;-77
2022/12/14 05:53:34;;;;;;;15.45;7.60;;;;;;;-2.98;100.00;99896.03;4990373;28;20066;-78
2022/12/14 05:56:00;;;;;;;20.88;8.55;;;;;;;-3.04;100.00;99896.28;4989473;28;20053;-77
2022/12/14 05:58:26;;;;;;;20.00;7.97;;;;;;;-3.04;100.00;99905.16;4992235;28;20046;-78
2022/12/14 06:00:51;;;;;;;16.13;8.07;;;;;;;-3.05;100.00;99906.13;4953014;28;20635;-79
2022/12/14 06:03:17;;;;;;;20.88;8.10;;;;;;;-3.04;100.00;99902.50;4992384;28;20039;-77
2022/12/14 06:05:42;;;;;;;16.73;7.50;;;;;;;-3.03;100.00;99903.38;4961909;28;20027;-79
2022/12/14 06:08:08;;;;;;;20.98;7.97;;;;;;;-3.04;100.00;99899.81;4992768;28;20047;-78
2022/12/14 06:10:35;;;;;;;23.00;8.57;;;;;;;-3.06;100.00;99906.16;4974906;28;20577;-78
2022/12/14 06:13:01;;;;;;;17.60;8.40;;;;;;;-3.13;100.00;99894.84;4983106;28;20045;-80
2022/12/14 06:15:30;;;;;;;20.95;8.05;;;;;;;-3.16;100.00;99887.78;4976569;28;20034;-79
2022/12/14 06:17:55;;;;;;;24.25;9.00;;;;;;;-3.13;100.00;99886.81;4987763;28;20046;-78
2022/12/14 06:20:20;;;;;;;23.98;8.15;;;;;;;-3.23;100.00;99883.59;4983184;28;20445;-78
2022/12/14 06:22:46;;;;;;;22.20;9.07;;;;;;;-3.19;100.00;99887.88;4983962;28;20101;-78
2022/12/14 06:25:13;;;;;;;23.45;8.07;;;;;;;-3.15;100.00;99880.59;4981884;28;20034;-78
2022/12/14 06:27:39;;;;;;;21.30;8.15;;;;;;;-3.08;100.00;99889.28;4996174;28;20097;-80
2022/12/14 06:30:05;;;;;;;17.90;8.43;;;;;;;-3.16;100.00;99894.94;4991598;28;20050;-77
2022/12/14 06:32:31;;;;;;;21.10;8.90;;;;;;;-3.15;100.00;99889.53;4975885;28;20042;-78
2022/12/14 06:34:56;;;;;;;19.13;8.98;;;;;;;-3.12;100.00;99893.88;4997290;28;20045;-79
2022/12/14 06:37:22;;;;;;;20.38;7.88;;;;;;;-3.15;100.00;99889.53;4979421;28;20077;-78
2022/12/14 06:39:48;;;;;;;20.95;9.13;;;;;;;-3.11;100.00;99889.41;4980698;28;20037;-79
2022/12/14 06:42:13;;;;;;;21.95;8.00;;;;;;;-3.12;100.00;99883.16;4998567;28;20053;-79
2022/12/14 06:44:39;;;;;;;18.90;9.18;;;;;;;-3.12;100.00;99882.31;4999301;28;20030;-78
2022/12/14 06:47:04;;;;;;;18.77;7.90;;;;;;;-3.09;100.00;99890.22;5014089;28;20045;-78
2022/12/14 06:49:30;;;;;;;17.70;7.30;;;;;;;-3.06;100.00;99896.31;4980390;28;20045;-80
2022/12/14 06:51:55;;;;;;;19.08;7.82;;;;;;;-3.10;100.00;99892.00;4989573;28;20434;-81
2022/12/14 06:54:20;;;;;;;20.75;7.72;;;;;;;-3.07;100.00;99891.03;4990319;28;20054;-79
2022/12/14 06:56:47;;;;;;;19.23;7.55;;;;;;;-3.01;100.00;99896.16;4958852;28;20062;-79
2022/12/14 06:59:13;;;;;;;17.48;7.35;;;;;;;-3.00;100.00;99892.53;5012275;28;20859;-79
2022/12/14 07:01:39;;;;;;;15.43;7.40;;;;;;;-2.98;100.00;99904.94;4977925;28;20041;-79
2022/12/14 07:04:06;;;;;;;18.33;8.10;;;;;;;-3.00;100.00;99895.19;4980443;28;20042;-80
2022/12/14 07:06:35;;;;;;;16.90;8.00;;;;;;;-3.01;100.00;99893.47;4993758;28;20077;-79
2022/12/14 07:09:01;;;;;;;18.58;8.93;;;;;;;-3.05;100.00;99891.84;4988127;28;20161;-78
2022/12/14 07:11:28;;;;;;;23.35;8.30;;;;;;;-3.03;100.00;99895.34;4994189;28;20038;-80
2022/12/14 07:13:54;;;;;;;18.77;8.85;;;;;;;-3.09;100.00;99891.09;4997272;28;20074;-79
2022/12/14 07:16:25;;;;;;;20.20;7.38;;;;;;;-3.11;100.00;99900.13;4997950;28;20113;-77
2022/12/14 07:18:51;;;;;;;21.33;8.82;;;;;;;-3.15;100.00;99904.69;4981334;28;20445;-80
2022/12/14 07:21:18;;;;;;;17.27;8.32;;;;;;;-3.03;100.00;99916.78;5000471;28;20181;-78
2022/12/14 07:23:45;;;;;;;18.27;8.25;;;;;;;-3.06;100.00;99911.53;4997324;28;20041;-79
2022/12/14 07:26:16;;;;;;;21.77;8.27;;;;;;;-3.06;100.00;99907.03;4998721;28;20441;-78
2022/12/14 07:28:43;;;;;;;17.02;7.65;;;;;;;-3.05;100.00;99908.78;4998572;28;20049;-79
2022/12/14 07:31:22;;;;;;;16.80;7.78;;;;;;;-3.06;100.00;99906.16;4999823;28;20378;-78
2022/12/14 07:33:48;;;;;;;24.40;8.52;;;;;;;-3.15;100.00;99904.69;4999869;28;20030;-79
2022/12/14 07:36:16;;;;;;;23.48;8.90;;;;;;;-3.11;100.00;99908.16;4973144;28;20085;-80
2022/12/14 07:38:43;;;;;;;18.60;8.30;;;;;;;-3.18;100.00;99900.34;4996356;28;20084;-79
2022/12/14 07:41:12;;;;;;;15.15;7.32;;;;;;;-3.21;100.00;99899.59;4991094;28;20073;-77
2022/12/14 07:43:39;;;;;;;19.05;8.45;;;;;;;-3.15;100.00;99913.63;4977324;28;20122;-79
2022/12/14 07:46:08;;;;;;;22.35;9.38;;;;;;;-3.19;100.00;99917.34;4966659;28;20030;-79
2022/12/14 07:48:34;;;;;;;20.27;9.48;;;;;;;-3.20;100.00;99917.38;5003492;28;20030;-80
2022/12/14 07:51:10;;;;;;;23.67;9.50;;;;;;;-3.21;100.00;99921.88;4999235;28;20054;-77
2022/12/14 07:53:37;;;;;;;21.83;9.52;;;;;;;-3.21;100.00;99921.88;4985890;28;20038;-80
2022/12/14 07:56:08;;;;;;;22.77;9.35;;;;;;;-3.23;100.00;99926.44;4986468;28;20046;-79
2022/12/14 07:58:35;;;;;;;16.42;8.18;;;;;;;-3.21;100.00;99927.22;4977966;28;20030;-79
2022/12/14 08:01:14;;;;;;;25.38;8.77;;;;;;;-3.22;100.00;99911.22;4999772;28;20089;-80
2022/12/14 08:03:42;;;;;;;22.42;8.80;;;;;;;-3.24;100.00;99916.63;4999996;28;20038;-80
2022/12/14 08:06:09;;;;;;;20.02;8.38;;;;;;;-3.19;100.00;99908.44;4982819;28;20053;-80
2022/12/14 08:08:36;;;;;;;25.23;8.60;;;;;;;-3.14;100.00;99919.84;4990576;28;20054;-80
2022/12/14 08:11:02;;;;;;;19.60;8.65;;;;;;;-3.25;100.00;99912.19;4999031;28;20042;-80
2022/12/14 08:13:31;;;;;;;19.95;8.70;;;;;;;-3.23;100.00;99926.44;4999788;28;20485;-79
2022/12/14 08:16:02;;;;;;;23.40;9.57;;;;;;;-3.26;100.00;99931.88;4999303;28;20041;-79
2022/12/14 08:18:27;;;;;;;19.58;9.73;;;;;;;-3.32;100.00;99913.38;4983248;28;20105;-79
2022/12/14 08:20:53;;;;;;;22.80;8.77;;;;;;;-3.36;100.00;99928.69;4998904;28;20501;-78
2022/12/14 08:23:19;;;;;;;20.77;8.50;;;;;;;-3.32;100.00;99921.41;4993950;28;20037;-78
2022/12/14 08:25:44;;;;;;;19.10;9.05;;;;;;;-3.30;100.00;99932.06;4990231;28;20077;-79
2022/12/14 08:28:10;;;;;;;21.80;8.48;;;;;;;-3.34;100.00;99924.13;4966017;28;20042;-81
2022/12/14 08:30:39;;;;;;;16.38;7.53;;;;;;;-3.24;100.00;99945.22;4996716;28;20116;-78
2022/12/14 08:33:05;;;;;;;15.93;6.93;;;;;;;-3.31;100.00;99933.88;4981894;28;20441;-79
2022/12/14 08:35:32;;;;;;;15.55;7.00;;;;;;;-3.31;100.00;99941.91;4980918;28;20030;-79
2022/12/14 08:37:57;;;;;;;16.80;7.78;;;;;;;-3.27;100.00;99935.50;4980723;28;20089;-79
2022/12/14 08:40:23;;;;;;;18.73;8.05;;;;;;;-3.33;100.00;99925.00;4981543;28;20030;-79
2022/12/14 08:42:49;;;;;;;16.52;6.65;;;;;;;-3.32;100.00;99924.94;4997840;28;20034;-80
2022/12/14 08:45:15;;;;;;;20.23;7.78;;;;;;;-3.26;100.00;99933.66;4998795;28;20054;-79
2022/12/14 08:47:41;;;;;;;14.05;7.10;;;;;;;-3.23;100.00;99928.22;4998016;28;20033;-80
2022/12/14 08:50:07;;;;;;;17.25;7.47;;;;;;;-3.24;100.00;99935.38;4980955;28;20120;-80
2022/12/14 08:52:33;;;;;;;17.73;7.03;;;;;;;-3.23;100.00;99942.50;4998419;28;20057;-78
2022/12/14 08:55:00;;;;;;;21.58;8.38;;;;;;;-3.34;100.00;99932.16;4997771;28;20058;-79
2022/12/14 08:57:25;;;;;;;16.48;7.03;;;;;;;-3.25;100.00;99943.47;4997483;28;20041;-78
2022/12/14 08:59:51;;;;;;;18.58;7.22;;;;;;;-3.39;100.00;99920.75;4981710;28;20038;-80
2022/12/14 09:02:16;;;;;;;21.13;8.15;;;;;;;-3.29;100.00;99953.41;4966009;28;20034;-80
2022/12/14 09:04:42;;;;;;;15.90;7.38;;;;;;;-3.20;100.00;99960.22;4965994;28;20030;-79
2022/12/14 09:07:07;;;;;;;18.35;8.02;;;;;;;-3.23;100.00;99963.91;4980844;28;20058;-78
2022/12/14 09:09:36;;;;;;;19.38;7.75;;;;;;;-3.22;100.00;99970.97;4998936;28;20437;-79
2022/12/14 09:12:05;;;;;;;18.25;7.82;;;;;;;-3.17;100.00;99965.47;5014582;28;20421;-78
2022/12/14 09:14:31;;;;;;;12.70;6.53;;;;;;;-3.29;100.00;99957.91;4995955;28;20089;-79
2022/12/14 09:16:57;;;;;;;16.77;7.40;;;;;;;-3.33;100.00;99951.75;4977781;28;20042;-79
2022/12/14 09:19:23;;;;;;;13.05;6.93;;;;;;;-3.31;100.00;99949.94;4980208;28;20042;-80
2022/12/14 09:21:49;;;;;;;18.25;8.25;;;;;;;-3.32;100.00;99948.16;4978090;28;20046;-79
2022/12/14 09:24:14;;;;;;;11.75;6.45;;;;;;;-3.28;100.00;99944.47;4971084;28;20042;-77
2022/12/14 09:26:40;;;;;;;19.10;8.05;;;;;;;-3.35;100.00;99950.97;4961867;28;20127;-80
2022/12/14 09:29:05;;;;;;;14.75;7.75;;;;;;;-3.30;100.00;99945.44;4978233;28;20532;-79
2022/12/14 09:31:31;;;;;;;14.70;8.18;;;;;;;-3.18;100.00;99947.63;4994461;28;20039;-79
2022/12/14 09:33:56;;;;;;;19.10;8.65;;;;;;;-3.04;100.00;99957.84;4963563;28;20074;-79
2022/12/14 09:36:26;;;;;;;19.00;7.80;;;;;;;-2.98;100.00;99953.13;4983453;28;20069;-79
2022/12/14 09:38:56;;;;;;;16.13;7.57;;;;;;;-2.89;100.00;99954.56;4962451;28;20059;-79
2022/12/14 09:41:34;;;;;;;19.83;8.07;;;;;;;-2.35;100.00;99965.00;4978920;28;20085;-79
2022/12/14 09:44:22;;;;;;;16.73;7.30;;;;;;;-2.34;100.00;99970.31;4996613;28;20045;-79
2022/12/14 09:47:11;;;;;;;19.90;7.57;;;;;;;-2.36;100.00;99965.91;4998285;28;20034;-80
2022/12/14 09:49:48;;;;;;;18.35;7.93;;;;;;;-2.19;100.00;99965.25;4980278;28;20071;-80
2022/12/14 09:52:41;;;;;;;14.57;6.88;;;;;;;-2.09;100.00;99963.94;4994871;28;20469;-80
2022/12/14 09:55:25;;;;;;;15.13;7.30;;;;;;;-1.95;100.00;99964.22;4997948;28;20113;-80
2022/12/14 09:58:14;;;;;;;16.00;6.97;;;;;;;-1.64;100.00;99962.94;4998560;28;20098;-79
2022/12/14 10:00:47;;;;;;;14.00;6.45;;;;;;;-1.95;100.00;99966.03;4996851;28;20105;-81
2022/12/14 10:03:27;;;;;;;17.20;8.40;;;;;;;-1.80;100.00;99973.44;4998020;28;20030;-80
2022/12/14 10:05:59;;;;;;;14.45;6.95;;;;;;;-1.68;100.00;99962.16;4996312;28;20041;-80
2022/12/14 10:08:26;;;;;;;17.42;7.50;;;;;;;-1.53;100.00;99962.44;4996220;28;20065;-81
2022/12/14 10:11:03;;;;;;;20.02;7.40;;;;;;;-1.62;100.00;99952.09;4980052;28;20046;-81
2022/12/14 10:13:53;;;;;;;20.60;7.45;;;;;;;-1.31;100.00;99967.75;4990545;28;20474;-82
2022/12/14 10:16:42;;;;;;;19.30;7.13;;;;;;;-1.32;100.00;99964.19;4978415;28;20031;-80
2022/12/14 10:19:21;;;;;;;14.80;7.68;;;;;;;-1.17;100.00;99967.13;4996689;28;20121;-80
2022/12/14 10:21:54;;;;;;;15.65;6.68;;;;;;;-1.06;100.00;99953.22;4998306;28;20038;-81
2022/12/14 10:24:26;;;;;;;17.98;6.95;;;;;;;-1.06;100.00;99961.28;4999045;28;20042;-79
2022/12/14 10:26:54;;;;;;;12.60;6.50;;;;;;;-0.97;100.00;99953.66;4989135;28;20041;-79
2022/12/14 10:29:31;;;;;;;19.10;7.60;;;;;;;-0.78;100.00;99959.03;4961210;28;20391;-80
2022/12/14 10:32:34;;;;;;;12.85;7.15;;;;;;;-0.33;100.00;99964.97;4994937;28;20033;-80
2022/12/14 10:35:27;;;;;;;14.73;7.20;;;;;;;-0.27;100.00;99969.19;4996608;28;20030;-80
2022/12/14 10:38:21;;;;;;;17.67;7.35;;;;;;;-0.54;100.00;99961.53;4996811;28;20410;-80
2022/12/14 10:40:48;;;;;;;13.50;6.18;;;;;;;-0.43;100.00;99963.69;4996119;28;20034;-79
2022/12/14 10:43:35;;;;;;;15.60;7.05;;;;;;;-0.81;100.00;99955.63;5006894;28;20043;-80
2022/12/14 10:46:22;;;;;;;20.13;6.88;;;;;;;0.32;100.00;99959.94;4978070;28;20137;-81
2022/12/14 10:48:55;;;;;;;13.20;6.47;;;;;;;0.06;100.00;99958.56;4977699;28;20063;-80
2022/12/14 10:51:25;;;;;;;14.13;6.40;;;;;;;0.33;100.00;99960.84;5012264;28;20453;-80
2022/12/14 10:54:02;;;;;;;19.02;7.60;;;;;;;0.03;100.00;99953.34;4995661;28;20065;-79
2022/12/14 10:56:32;;;;;;;15.20;6.72;;;;;;;-0.35;100.00;99956.13;4991632;28;20069;-80
2022/12/14 10:59:28;;;;;;;16.98;7.05;;;;;;;-0.51;100.00;99953.28;4996838;28;20035;-78
2022/12/14 11:02:02;;;;;;;14.95;7.68;;;;;;;-0.37;100.00;99953.50;4994966;28;20053;-79
2022/12/14 11:04:35;;;;;;;13.95;6.65;;;;;;;-0.04;100.00;99952.78;4982890;28;20478;-79
2022/12/14 11:07:09;;;;;;;26.73;7.82;;;;;;;0.67;100.00;99948.28;4999709;28;20064;-79
2022/12/14 11:09:36;;;;;;;17.23;6.97;;;;;;;0.37;100.00;99957.00;4999724;28;20101;-80
2022/12/14 11:12:14;;;;;;;16.20;7.03;;;;;;;-0.19;100.00;99946.34;4982994;28;20037;-79
2022/12/14 11:15:22;;;;;;;16.45;6.75;;;;;;;-0.02;100.00;99958.09;4999307;28;20058;-79
2022/12/14 11:18:00;;;;;;;15.55;6.35;;;;;;;-0.11;100.00;99959.41;4977111;28;20383;-78
2022/12/14 11:20:25;;;;;;;18.13;6.07;;;;;;;0.68;100.00;99966.19;4986300;28;20482;-78
2022/12/14 11:22:52;;;;;;;13.23;7.15;;;;;;;0.50;100.00;99965.34;4979874;28;20042;-79
2022/12/14 11:25:29;;;;;;;13.88;7.03;;;;;;;-0.09;100.00;99962.91;4981273;28;20483;-80
2022/12/14 11:28:01;;;;;;;16.38;6.97;;;;;;;0.06;100.00;99955.88;4980372;28;20089;-79
2022/12/14 11:30:30;;;;;;;13.73;7.10;;;;;;;-0.02;100.00;99971.53;4981121;28;20069;-80
2022/12/14 11:32:56;;;;;;;17.30;6.88;;;;;;;-0.07;100.00;99965.53;4978321;28;20033;-79
2022/12/14 11:35:21;;;;;;;13.70;6.22;;;;;;;-0.02;100.00;99972.44;4983569;28;20117;-79
2022/12/14 11:37:48;;;;;;;17.73;7.13;;;;;;;0.42;100.00;99976.50;4981806;28;20038;-79
2022/12/14 11:40:24;;;;;;;17.45;6.75;;;;;;;0.42;100.00;99981.88;4999679;28;20046;-78
2022/12/14 11:42:54;;;;;;;13.75;6.72;;;;;;;0.18;100.00;99971.44;4983769;28;20034;-78
2022/12/14 11:45:30;;;;;;;14.35;6.68;;;;;;;-0.01;100.00;99978.66;5000878;28;20034;-79